createdAt,value
2018-03-03T00:00:12.266Z,968.60
2018-03-03T00:01:19.148Z,968.62
2018-03-03T00:02:26.210Z,968.62
2018-03-03T00:03:33.254Z,968.71
2018-03-03T00:04:39.952Z,968.60
2018-03-03T00:05:46.689Z,968.60
2018-03-03T00:06:53.400Z,968.62
2018-03-03T00:08:00.153Z,968.70
2018-03-03T00:09:06.877Z,968.63
2018-03-03T00:10:13.582Z,968.60
2018-03-03T00:11:20.453Z,968.61
2018-03-03T00:12:27.347Z,968.61
2018-03-03T00:13:34.485Z,968.63
2018-03-03T00:14:41.177Z,968.70
2018-03-03T00:15:47.894Z,968.79
2018-03-03T00:16:54.789Z,968.80
2018-03-03T00:18:01.494Z,968.82
2018-03-03T00:19:08.306Z,968.79
2018-03-03T00:20:14.966Z,968.91
2018-03-03T00:21:21.700Z,968.98
2018-03-03T00:22:28.402Z,968.98
2018-03-03T00:23:35.285Z,968.99
2018-03-03T00:24:42.037Z,968.87
2018-03-03T00:25:48.889Z,968.90
2018-03-03T00:26:55.598Z,968.85
2018-03-03T00:28:02.711Z,968.91
2018-03-03T00:29:09.460Z,968.92
2018-03-03T00:30:16.189Z,968.93
2018-03-03T00:31:22.866Z,968.89
2018-03-03T00:32:29.550Z,968.92
2018-03-03T00:33:36.265Z,968.77
2018-03-03T00:34:43.244Z,968.84
2018-03-03T00:35:49.918Z,968.87
2018-03-03T00:36:56.625Z,968.83
2018-03-03T00:38:03.426Z,968.83
2018-03-03T00:39:10.121Z,968.91
2018-03-03T00:40:16.824Z,968.93
2018-03-03T00:41:23.498Z,968.85
2018-03-03T00:42:30.238Z,968.82
2018-03-03T00:43:36.961Z,968.77
2018-03-03T00:44:43.693Z,968.88
2018-03-03T00:45:50.404Z,968.83
2018-03-03T00:46:57.559Z,968.79
2018-03-03T00:48:04.250Z,968.86
2018-03-03T00:49:10.974Z,968.83
2018-03-03T00:50:17.649Z,968.82
2018-03-03T00:51:24.326Z,968.90
2018-03-03T00:52:31.097Z,968.90
2018-03-03T00:53:37.805Z,968.78
2018-03-03T00:54:44.566Z,968.82
2018-03-03T00:55:51.289Z,968.70
2018-03-03T00:56:57.986Z,968.79
2018-03-03T00:58:04.944Z,968.76
2018-03-03T00:59:11.622Z,968.77
2018-03-03T01:00:18.332Z,968.74
2018-03-03T01:01:25.256Z,968.81
2018-03-03T01:02:31.966Z,968.84
2018-03-03T01:03:38.740Z,968.85
2018-03-03T01:04:45.455Z,968.70
2018-03-03T01:05:52.222Z,968.77
2018-03-03T01:06:58.943Z,968.81
2018-03-03T01:08:05.650Z,968.78
2018-03-03T01:09:12.344Z,968.81
2018-03-03T01:10:19.117Z,968.83
2018-03-03T01:11:25.778Z,968.76
2018-03-03T01:12:32.512Z,968.74
2018-03-03T01:13:39.194Z,968.64
2018-03-03T01:14:45.902Z,968.67
2018-03-03T01:15:52.630Z,968.78
2018-03-03T01:16:59.357Z,968.69
2018-03-03T01:18:06.075Z,968.58
2018-03-03T01:19:12.754Z,968.64
2018-03-03T01:20:19.558Z,968.59
2018-03-03T01:21:26.497Z,968.54
2018-03-03T01:22:33.181Z,968.53
2018-03-03T01:23:39.970Z,968.52
2018-03-03T01:24:46.952Z,968.50
2018-03-03T01:25:53.778Z,968.48
2018-03-03T01:27:00.589Z,968.51
2018-03-03T01:28:07.478Z,968.45
2018-03-03T01:29:14.351Z,968.55
2018-03-03T01:30:21.198Z,968.46
2018-03-03T01:31:28.009Z,968.47
2018-03-03T01:32:34.913Z,968.47
2018-03-03T01:33:42.421Z,968.48
2018-03-03T01:34:48.785Z,968.50
2018-03-03T01:35:55.638Z,968.41
2018-03-03T01:37:02.342Z,968.44
2018-03-03T01:38:09.397Z,968.50
2018-03-03T01:39:16.360Z,968.59
2018-03-03T01:40:23.430Z,968.52
2018-03-03T01:41:30.144Z,968.54
2018-03-03T01:42:37.300Z,968.56
2018-03-03T01:43:44.460Z,968.51
2018-03-03T01:44:51.126Z,968.51
2018-03-03T01:45:57.857Z,968.49
2018-03-03T01:47:04.543Z,968.43
2018-03-03T01:48:11.254Z,968.40
2018-03-03T01:49:17.978Z,968.45
2018-03-03T01:50:24.640Z,968.51
2018-03-03T01:51:31.857Z,968.43
2018-03-03T01:52:38.999Z,968.42
2018-03-03T01:53:45.778Z,968.43
2018-03-03T01:54:52.594Z,968.39
2018-03-03T01:55:59.625Z,968.37
2018-03-03T01:57:06.328Z,968.25
2018-03-03T01:58:13.056Z,968.30
2018-03-03T01:59:19.757Z,968.30
2018-03-03T02:00:26.582Z,968.31
2018-03-03T02:01:33.316Z,968.31
2018-03-03T02:02:40.011Z,968.25
2018-03-03T02:03:46.721Z,968.29
2018-03-03T02:04:53.476Z,968.27
2018-03-03T02:06:00.240Z,968.28
2018-03-03T02:07:06.935Z,968.25
2018-03-03T02:08:13.669Z,968.16
2018-03-03T02:09:20.348Z,968.19
2018-03-03T02:10:27.121Z,968.14
2018-03-03T02:11:33.856Z,968.10
2018-03-03T02:12:40.536Z,968.16
2018-03-03T02:13:47.215Z,968.10
2018-03-03T02:14:53.893Z,968.13
2018-03-03T02:16:00.682Z,968.12
2018-03-03T02:17:07.446Z,968.09
2018-03-03T02:18:14.269Z,968.09
2018-03-03T02:19:20.960Z,968.09
2018-03-03T02:20:27.743Z,968.07
2018-03-03T02:21:34.565Z,968.13
2018-03-03T02:22:41.254Z,968.06
2018-03-03T02:23:47.937Z,968.14
2018-03-03T02:24:54.665Z,968.21
2018-03-03T02:26:01.424Z,968.23
2018-03-03T02:27:08.156Z,968.19
2018-03-03T02:28:14.887Z,968.27
2018-03-03T02:29:21.569Z,968.27
2018-03-03T02:30:28.279Z,968.25
2018-03-03T02:31:34.993Z,968.21
2018-03-03T02:32:41.773Z,968.14
2018-03-03T02:33:48.436Z,968.11
2018-03-03T02:34:55.171Z,968.14
2018-03-03T02:36:01.939Z,968.16
2018-03-03T02:37:08.657Z,968.12
2018-03-03T02:38:15.485Z,968.14
2018-03-03T02:39:22.210Z,968.11
2018-03-03T02:40:28.945Z,968.06
2018-03-03T02:41:35.741Z,967.94
2018-03-03T02:42:42.586Z,968.06
2018-03-03T02:43:49.304Z,967.91
2018-03-03T02:44:56.070Z,968.03
2018-03-03T02:46:02.928Z,968.05
2018-03-03T02:47:09.695Z,968.04
2018-03-03T02:48:16.558Z,967.96
2018-03-03T02:49:23.437Z,967.87
2018-03-03T02:50:30.142Z,967.92
2018-03-03T02:51:36.913Z,967.91
2018-03-03T02:52:43.715Z,967.93
2018-03-03T02:53:50.532Z,967.92
2018-03-03T02:54:57.288Z,967.94
2018-03-03T02:56:04.001Z,967.87
2018-03-03T02:57:10.733Z,967.87
2018-03-03T02:58:17.489Z,967.77
2018-03-03T02:59:24.271Z,967.78
2018-03-03T03:00:31.089Z,967.88
2018-03-03T03:01:37.810Z,967.88
2018-03-03T03:02:44.569Z,967.85
2018-03-03T03:03:51.352Z,967.83
2018-03-03T03:04:58.088Z,967.78
2018-03-03T03:06:04.831Z,967.72
2018-03-03T03:07:11.541Z,967.71
2018-03-03T03:08:18.266Z,967.63
2018-03-03T03:09:25.108Z,967.56
2018-03-03T03:10:31.929Z,967.55
2018-03-03T03:11:38.689Z,967.57
2018-03-03T03:12:45.455Z,967.61
2018-03-03T03:13:52.202Z,967.61
2018-03-03T03:14:58.910Z,967.62
2018-03-03T03:16:05.629Z,967.54
2018-03-03T03:17:12.410Z,967.57
2018-03-03T03:18:19.150Z,967.51
2018-03-03T03:19:25.877Z,967.50
2018-03-03T03:20:32.798Z,967.46
2018-03-03T03:21:39.559Z,967.55
2018-03-03T03:22:46.361Z,967.56
2018-03-03T03:23:53.104Z,967.55
2018-03-03T03:24:59.982Z,967.52
2018-03-03T03:26:06.753Z,967.52
2018-03-03T03:27:13.566Z,967.49
2018-03-03T03:28:20.381Z,967.51
2018-03-03T03:29:27.167Z,967.48
2018-03-03T03:30:33.883Z,967.45
2018-03-03T03:31:40.634Z,967.48
2018-03-03T03:32:47.398Z,967.52
2018-03-03T03:33:54.160Z,967.54
2018-03-03T03:35:00.888Z,967.46
2018-03-03T03:36:07.686Z,967.51
2018-03-03T03:37:14.470Z,967.51
2018-03-03T03:38:21.346Z,967.51
2018-03-03T03:39:28.113Z,967.52
2018-03-03T03:40:34.827Z,967.49
2018-03-03T03:41:41.580Z,967.49
2018-03-03T03:42:48.398Z,967.48
2018-03-03T03:43:55.141Z,967.46
2018-03-03T03:45:01.916Z,967.53
2018-03-03T03:46:08.683Z,967.52
2018-03-03T03:47:15.441Z,967.48
2018-03-03T03:48:22.333Z,967.47
2018-03-03T03:49:29.046Z,967.36
2018-03-03T03:50:35.782Z,967.41
2018-03-03T03:51:42.534Z,967.38
2018-03-03T03:52:49.270Z,967.39
2018-03-03T03:53:56.030Z,967.38
2018-03-03T03:55:02.763Z,967.43
2018-03-03T03:56:09.537Z,967.38
2018-03-03T03:57:16.361Z,967.41
2018-03-03T03:58:23.334Z,967.39
2018-03-03T03:59:30.037Z,967.37
2018-03-03T04:00:36.763Z,967.40
2018-03-03T04:01:43.722Z,967.36
2018-03-03T04:02:50.450Z,967.27
2018-03-03T04:03:57.229Z,967.23
2018-03-03T04:05:03.965Z,967.19
2018-03-03T04:06:10.677Z,967.19
2018-03-03T04:07:17.490Z,967.17
2018-03-03T04:08:24.236Z,967.25
2018-03-03T04:09:31.002Z,967.16
2018-03-03T04:10:37.738Z,967.13
2018-03-03T04:11:44.586Z,967.22
2018-03-03T04:12:51.337Z,967.17
2018-03-03T04:13:58.082Z,967.21
2018-03-03T04:15:04.845Z,967.27
2018-03-03T04:16:11.656Z,967.24
2018-03-03T04:17:18.376Z,967.27
2018-03-03T04:18:25.170Z,967.21
2018-03-03T04:19:31.909Z,967.20
2018-03-03T04:20:38.606Z,967.20
2018-03-03T04:21:45.385Z,967.26
2018-03-03T04:22:52.163Z,967.18
2018-03-03T04:23:58.913Z,967.23
2018-03-03T04:25:06.033Z,967.23
2018-03-03T04:26:12.487Z,967.19
2018-03-03T04:27:19.272Z,967.21
2018-03-03T04:28:26.060Z,967.19
2018-03-03T04:29:32.895Z,967.17
2018-03-03T04:30:39.725Z,967.17
2018-03-03T04:31:46.722Z,967.25
2018-03-03T04:32:53.512Z,967.18
2018-03-03T04:34:00.289Z,967.23
2018-03-03T04:35:07.110Z,967.19
2018-03-03T04:36:13.819Z,967.16
2018-03-03T04:37:20.611Z,967.19
2018-03-03T04:38:27.369Z,967.19
2018-03-03T04:39:34.176Z,967.19
2018-03-03T04:40:40.912Z,967.15
2018-03-03T04:41:47.658Z,967.13
2018-03-03T04:42:54.404Z,967.04
2018-03-03T04:44:01.139Z,967.10
2018-03-03T04:45:07.945Z,967.04
2018-03-03T04:46:14.726Z,967.04
2018-03-03T04:47:21.470Z,967.02
2018-03-03T04:48:28.293Z,967.04
2018-03-03T04:49:35.056Z,967.01
2018-03-03T04:50:41.919Z,967.00
2018-03-03T04:51:48.800Z,967.00
2018-03-03T04:52:55.849Z,966.94
2018-03-03T04:54:02.637Z,966.92
2018-03-03T04:55:09.506Z,966.94
2018-03-03T04:56:16.366Z,966.94
2018-03-03T04:57:23.154Z,966.88
2018-03-03T04:58:29.965Z,966.90
2018-03-03T04:59:36.829Z,966.93
2018-03-03T05:00:43.637Z,966.97
2018-03-03T05:01:50.425Z,966.97
2018-03-03T05:02:57.641Z,966.88
2018-03-03T05:04:04.426Z,966.87
2018-03-03T05:05:11.275Z,966.88
2018-03-03T05:06:18.123Z,966.92
2018-03-03T05:07:24.785Z,966.94
2018-03-03T05:08:31.606Z,966.86
2018-03-03T05:09:38.421Z,966.87
2018-03-03T05:10:45.335Z,966.84
2018-03-03T05:11:52.123Z,966.73
2018-03-03T05:12:58.929Z,966.75
2018-03-03T05:14:05.937Z,966.66
2018-03-03T05:15:12.720Z,966.63
2018-03-03T05:16:19.547Z,966.55
2018-03-03T05:17:26.329Z,966.56
2018-03-03T05:18:33.160Z,966.51
2018-03-03T05:19:40.004Z,966.48
2018-03-03T05:20:47.113Z,966.45
2018-03-03T05:21:54.014Z,966.45
2018-03-03T05:23:01.137Z,966.51
2018-03-03T05:24:08.175Z,966.48
2018-03-03T05:25:15.265Z,966.55
2018-03-03T05:26:22.234Z,966.62
2018-03-03T05:27:29.052Z,966.66
2018-03-03T05:28:36.164Z,966.66
2018-03-03T05:29:43.368Z,966.66
2018-03-03T05:30:50.321Z,966.60
2018-03-03T05:31:57.264Z,966.55
2018-03-03T05:33:04.201Z,966.55
2018-03-03T05:34:11.364Z,966.57
2018-03-03T05:35:18.190Z,966.66
2018-03-03T05:36:25.302Z,966.67
2018-03-03T05:37:32.364Z,966.71
2018-03-03T05:38:39.252Z,966.70
2018-03-03T05:39:46.012Z,966.67
2018-03-03T05:40:52.837Z,966.64
2018-03-03T05:41:59.672Z,966.59
2018-03-03T05:43:06.443Z,966.74
2018-03-03T05:44:13.258Z,966.63
2018-03-03T05:45:20.210Z,966.66
2018-03-03T05:46:26.936Z,966.71
2018-03-03T05:47:33.808Z,966.61
2018-03-03T05:48:40.539Z,966.59
2018-03-03T05:49:47.335Z,966.61
2018-03-03T05:50:54.080Z,966.56
2018-03-03T05:52:00.865Z,966.59
2018-03-03T05:53:07.633Z,966.56
2018-03-03T05:54:14.450Z,966.66
2018-03-03T05:55:21.292Z,966.63
2018-03-03T05:56:28.145Z,966.67
2018-03-03T05:57:34.941Z,966.61
2018-03-03T05:58:41.813Z,966.65
2018-03-03T05:59:48.590Z,966.61
2018-03-03T06:00:55.331Z,966.61
2018-03-03T06:02:02.125Z,966.61
2018-03-03T06:03:08.923Z,966.62
2018-03-03T06:04:15.688Z,966.58
2018-03-03T06:05:22.450Z,966.64
2018-03-03T06:06:29.302Z,966.59
2018-03-03T06:07:36.202Z,966.54
2018-03-03T06:08:43.068Z,966.57
2018-03-03T06:09:49.853Z,966.57
2018-03-03T06:10:56.657Z,966.55
2018-03-03T06:12:03.381Z,966.55
2018-03-03T06:13:10.173Z,966.53
2018-03-03T06:14:16.912Z,966.52
2018-03-03T06:15:23.613Z,966.51
2018-03-03T06:16:30.374Z,966.50
2018-03-03T06:17:37.342Z,966.44
2018-03-03T06:18:44.148Z,966.46
2018-03-03T06:19:51.115Z,966.51
2018-03-03T06:20:58.140Z,966.54
2018-03-03T06:22:04.827Z,966.58
2018-03-03T06:23:11.636Z,966.46
2018-03-03T06:24:18.289Z,966.48
2018-03-03T06:25:25.056Z,966.60
2018-03-03T06:26:31.993Z,966.52
2018-03-03T06:27:38.851Z,966.51
2018-03-03T06:28:45.601Z,966.56
2018-03-03T06:29:52.298Z,966.50
2018-03-03T06:30:58.984Z,966.51
2018-03-03T06:32:05.694Z,966.46
2018-03-03T06:33:12.489Z,966.52
2018-03-03T06:34:19.281Z,966.51
2018-03-03T06:35:26.112Z,966.50
2018-03-03T06:36:32.824Z,966.51
2018-03-03T06:37:39.525Z,966.49
2018-03-03T06:38:46.706Z,966.58
2018-03-03T06:39:53.477Z,966.46
2018-03-03T06:41:00.163Z,966.54
2018-03-03T06:42:06.878Z,966.52
2018-03-03T06:43:13.696Z,966.48
2018-03-03T06:44:20.380Z,966.51
2018-03-03T06:45:27.178Z,966.44
2018-03-03T06:46:33.851Z,966.46
2018-03-03T06:47:40.532Z,966.48
2018-03-03T06:48:47.761Z,966.49
2018-03-03T06:49:54.441Z,966.48
2018-03-03T06:51:01.136Z,966.45
2018-03-03T06:52:07.837Z,966.46
2018-03-03T06:53:14.488Z,966.48
2018-03-03T06:54:21.657Z,966.47
2018-03-03T06:55:28.332Z,966.39
2018-03-03T06:56:35.052Z,966.36
2018-03-03T06:57:41.745Z,966.42
2018-03-03T06:58:48.457Z,966.34
2018-03-03T06:59:55.190Z,966.35
2018-03-03T07:01:01.932Z,966.41
2018-03-03T07:02:08.581Z,966.38
2018-03-03T07:03:15.256Z,966.40
2018-03-03T07:04:22.463Z,966.30
2018-03-03T07:05:29.446Z,966.30
2018-03-03T07:06:36.695Z,966.31
2018-03-03T07:07:42.969Z,966.31
2018-03-03T07:08:49.998Z,966.28
2018-03-03T07:09:56.722Z,966.33
2018-03-03T07:11:03.558Z,966.39
2018-03-03T07:12:10.265Z,966.41
2018-03-03T07:13:17.008Z,966.39
2018-03-03T07:14:23.893Z,966.44
2018-03-03T07:15:30.877Z,966.35
2018-03-03T07:16:37.734Z,966.40
2018-03-03T07:17:44.480Z,966.38
2018-03-03T07:18:51.260Z,966.42
2018-03-03T07:19:57.959Z,966.40
2018-03-03T07:21:04.633Z,966.49
2018-03-03T07:22:11.384Z,966.51
2018-03-03T07:23:18.057Z,966.45
2018-03-03T07:24:25.348Z,966.46
2018-03-03T07:25:32.402Z,966.50
2018-03-03T07:26:39.206Z,966.45
2018-03-03T07:27:45.948Z,966.41
2018-03-03T07:28:52.715Z,966.41
2018-03-03T07:29:59.393Z,966.40
2018-03-03T07:31:06.064Z,966.35
2018-03-03T07:32:13.581Z,966.36
2018-03-03T07:33:20.268Z,966.41
2018-03-03T07:34:27.034Z,966.40
2018-03-03T07:35:33.850Z,966.44
2018-03-03T07:36:40.572Z,966.45
2018-03-03T07:37:47.409Z,966.51
2018-03-03T07:38:54.193Z,966.44
2018-03-03T07:40:01.020Z,966.48
2018-03-03T07:41:07.877Z,966.45
2018-03-03T07:42:14.713Z,966.42
2018-03-03T07:43:21.568Z,966.42
2018-03-03T07:44:28.330Z,966.36
2018-03-03T07:45:35.152Z,966.52
2018-03-03T07:46:41.869Z,966.51
2018-03-03T07:47:48.742Z,966.45
2018-03-03T07:48:55.855Z,966.48
2018-03-03T07:50:02.253Z,966.54
2018-03-03T07:51:09.061Z,966.52
2018-03-03T07:52:15.944Z,966.56
2018-03-03T07:53:22.677Z,966.60
2018-03-03T07:54:29.452Z,966.62
2018-03-03T07:55:36.198Z,966.66
2018-03-03T07:56:42.963Z,966.68
2018-03-03T07:57:49.980Z,966.74
2018-03-03T07:58:56.749Z,966.76
2018-03-03T08:00:03.628Z,966.85
2018-03-03T08:01:10.477Z,966.78
2018-03-03T08:02:17.217Z,966.84
2018-03-03T08:03:24.104Z,966.87
2018-03-03T08:04:31.049Z,966.88
2018-03-03T08:05:37.929Z,966.85
2018-03-03T08:06:44.876Z,966.87
2018-03-03T08:07:51.594Z,966.81
2018-03-03T08:08:58.390Z,966.94
2018-03-03T08:10:05.289Z,966.90
2018-03-03T08:11:12.097Z,966.90
2018-03-03T08:12:18.889Z,966.92
2018-03-03T08:13:25.712Z,966.91
2018-03-03T08:14:32.450Z,966.96
2018-03-03T08:15:39.247Z,966.97
2018-03-03T08:16:45.944Z,966.90
2018-03-03T08:17:52.671Z,966.88
2018-03-03T08:18:59.461Z,966.95
2018-03-03T08:20:06.156Z,966.92
2018-03-03T08:21:12.914Z,967.00
2018-03-03T08:22:19.617Z,967.03
2018-03-03T08:23:26.341Z,967.01
2018-03-03T08:24:33.068Z,966.95
2018-03-03T08:25:39.910Z,967.01
2018-03-03T08:26:46.669Z,967.01
2018-03-03T08:27:53.494Z,967.01
2018-03-03T08:29:00.280Z,966.97
2018-03-03T08:30:06.984Z,967.04
2018-03-03T08:31:13.744Z,966.95
2018-03-03T08:32:20.500Z,966.97
2018-03-03T08:33:27.426Z,967.01
2018-03-03T08:34:34.340Z,966.98
2018-03-03T08:35:41.190Z,967.07
2018-03-03T08:36:47.947Z,967.00
2018-03-03T08:37:54.684Z,967.05
2018-03-03T08:39:01.502Z,966.97
2018-03-03T08:40:08.464Z,967.02
2018-03-03T08:41:15.197Z,966.97
2018-03-03T08:42:21.901Z,967.08
2018-03-03T08:43:28.580Z,966.97
2018-03-03T08:44:35.313Z,967.06
2018-03-03T08:45:41.988Z,967.02
2018-03-03T08:46:49.169Z,967.00
2018-03-03T08:47:55.928Z,966.98
2018-03-03T08:49:02.606Z,967.02
2018-03-03T08:50:09.456Z,967.01
2018-03-03T08:51:16.272Z,967.11
2018-03-03T08:52:23.100Z,967.01
2018-03-03T08:53:30.280Z,967.07
2018-03-03T08:54:36.969Z,967.03
2018-03-03T08:55:43.764Z,967.03
2018-03-03T08:56:50.741Z,967.03
2018-03-03T08:57:57.444Z,967.04
2018-03-03T08:59:04.215Z,966.96
2018-03-03T09:00:10.973Z,966.95
2018-03-03T09:01:17.774Z,967.02
2018-03-03T09:02:24.516Z,966.98
2018-03-03T09:03:31.342Z,967.00
2018-03-03T09:04:38.065Z,966.98
2018-03-03T09:05:44.801Z,966.98
2018-03-03T09:06:51.605Z,966.95
2018-03-03T09:07:58.456Z,967.01
2018-03-03T09:09:05.245Z,966.97
2018-03-03T09:10:11.960Z,966.97
2018-03-03T09:11:18.648Z,966.99
2018-03-03T09:12:25.402Z,966.96
2018-03-03T09:13:32.383Z,966.97
2018-03-03T09:14:39.157Z,966.91
2018-03-03T09:15:45.922Z,966.99
2018-03-03T09:16:52.621Z,967.00
2018-03-03T09:17:59.376Z,967.05
2018-03-03T09:19:06.198Z,967.10
2018-03-03T09:20:12.902Z,967.01
2018-03-03T09:21:19.760Z,967.03
2018-03-03T09:22:26.548Z,967.10
2018-03-03T09:23:33.577Z,967.07
2018-03-03T09:24:40.309Z,967.02
2018-03-03T09:25:47.047Z,967.01
2018-03-03T09:26:53.763Z,967.04
2018-03-03T09:28:00.583Z,966.99
2018-03-03T09:29:07.305Z,967.01
2018-03-03T09:30:14.321Z,967.03
2018-03-03T09:31:21.134Z,966.95
2018-03-03T09:32:27.881Z,966.94
2018-03-03T09:33:34.867Z,967.03
2018-03-03T09:34:41.616Z,966.97
2018-03-03T09:35:48.305Z,967.06
2018-03-03T09:36:55.058Z,967.09
2018-03-03T09:38:01.914Z,967.02
2018-03-03T09:39:08.668Z,966.95
2018-03-03T09:40:15.405Z,966.99
2018-03-03T09:41:22.174Z,967.07
2018-03-03T09:42:28.981Z,967.00
2018-03-03T09:43:35.737Z,966.98
2018-03-03T09:44:42.559Z,967.01
2018-03-03T09:45:49.389Z,966.92
2018-03-03T09:46:56.096Z,967.06
2018-03-03T09:48:02.851Z,967.03
2018-03-03T09:49:09.616Z,966.99
2018-03-03T09:50:16.508Z,967.02
2018-03-03T09:51:23.318Z,966.94
2018-03-03T09:52:30.036Z,966.94
2018-03-03T09:53:36.773Z,966.93
2018-03-03T09:54:43.620Z,966.99
2018-03-03T09:55:50.378Z,966.87
2018-03-03T09:56:57.548Z,966.91
2018-03-03T09:58:04.312Z,966.92
2018-03-03T09:59:11.222Z,966.84
2018-03-03T10:00:18.052Z,966.93
2018-03-03T10:01:25.017Z,966.91
2018-03-03T10:02:31.801Z,966.93
2018-03-03T10:03:38.644Z,966.90
2018-03-03T10:04:45.516Z,966.84
2018-03-03T10:05:52.236Z,966.85
2018-03-03T10:06:58.989Z,966.84
2018-03-03T10:08:05.930Z,966.81
2018-03-03T10:09:12.725Z,966.81
2018-03-03T10:10:19.629Z,966.83
2018-03-03T10:11:26.351Z,966.80
2018-03-03T10:12:33.132Z,966.75
2018-03-03T10:13:39.832Z,966.73
2018-03-03T10:14:46.813Z,966.77
2018-03-03T10:15:53.632Z,966.72
2018-03-03T10:17:00.732Z,966.76
2018-03-03T10:18:07.545Z,966.73
2018-03-03T10:19:14.256Z,966.76
2018-03-03T10:20:20.977Z,966.79
2018-03-03T10:21:27.740Z,966.72
2018-03-03T10:22:34.445Z,966.86
2018-03-03T10:23:41.245Z,966.78
2018-03-03T10:24:48.045Z,966.74
2018-03-03T10:25:55.009Z,966.74
2018-03-03T10:27:01.818Z,966.84
2018-03-03T10:28:08.628Z,966.87
2018-03-03T10:29:15.449Z,966.86
2018-03-03T10:30:22.200Z,966.88
2018-03-03T10:31:28.928Z,966.82
2018-03-03T10:32:35.713Z,966.83
2018-03-03T10:33:42.472Z,966.78
2018-03-03T10:34:49.230Z,966.77
2018-03-03T10:35:56.046Z,966.84
2018-03-03T10:37:02.896Z,966.69
2018-03-03T10:38:09.653Z,966.74
2018-03-03T10:39:16.488Z,966.69
2018-03-03T10:40:23.280Z,966.71
2018-03-03T10:41:29.993Z,966.68
2018-03-03T10:42:36.708Z,966.62
2018-03-03T10:43:43.598Z,966.67
2018-03-03T10:44:50.227Z,966.67
2018-03-03T10:45:56.969Z,966.65
2018-03-03T10:47:03.701Z,966.67
2018-03-03T10:48:10.525Z,966.69
2018-03-03T10:49:17.245Z,966.68
2018-03-03T10:50:24.140Z,966.73
2018-03-03T10:51:30.854Z,966.71
2018-03-03T10:52:37.804Z,966.71
2018-03-03T10:53:44.620Z,966.72
2018-03-03T10:54:51.385Z,966.64
2018-03-03T10:55:58.088Z,966.72
2018-03-03T10:57:05.010Z,966.82
2018-03-03T10:58:11.796Z,966.74
2018-03-03T10:59:18.623Z,966.76
2018-03-03T11:00:25.492Z,966.72
2018-03-03T11:01:32.474Z,966.78
2018-03-03T11:02:39.232Z,966.85
2018-03-03T11:03:45.940Z,966.77
2018-03-03T11:04:52.644Z,966.76
2018-03-03T11:05:59.519Z,966.74
2018-03-03T11:07:06.237Z,966.77
2018-03-03T11:08:12.928Z,966.74
2018-03-03T11:09:19.654Z,966.71
2018-03-03T11:10:26.485Z,966.75
2018-03-03T11:11:33.187Z,966.75
2018-03-03T11:12:39.885Z,966.76
2018-03-03T11:13:46.664Z,966.79
2018-03-03T11:14:53.372Z,966.78
2018-03-03T11:16:00.076Z,966.83
2018-03-03T11:17:06.920Z,966.70
2018-03-03T11:18:13.709Z,966.74
2018-03-03T11:19:20.491Z,966.71
2018-03-03T11:20:27.468Z,966.68
2018-03-03T11:21:34.196Z,966.69
2018-03-03T11:22:40.880Z,966.69
2018-03-03T11:23:47.671Z,966.62
2018-03-03T11:24:54.436Z,966.61
2018-03-03T11:26:01.390Z,966.64
2018-03-03T11:27:08.232Z,966.52
2018-03-03T11:28:15.079Z,966.52
2018-03-03T11:29:21.961Z,966.65
2018-03-03T11:30:28.669Z,966.63
2018-03-03T11:31:35.385Z,966.56
2018-03-03T11:32:42.081Z,966.57
2018-03-03T11:33:48.832Z,966.54
2018-03-03T11:34:55.518Z,966.52
2018-03-03T11:36:02.337Z,966.58
2018-03-03T11:37:09.038Z,966.53
2018-03-03T11:38:15.742Z,966.55
2018-03-03T11:39:22.503Z,966.54
2018-03-03T11:40:33.135Z,966.54
2018-03-03T11:41:35.913Z,966.73
2018-03-03T11:42:42.686Z,966.74
2018-03-03T11:43:49.852Z,966.62
2018-03-03T11:44:56.550Z,966.61
2018-03-03T11:46:03.354Z,966.58
2018-03-03T11:47:10.086Z,966.63
2018-03-03T11:48:16.866Z,966.64
2018-03-03T11:49:23.572Z,966.69
2018-03-03T11:50:30.324Z,966.68
2018-03-03T11:51:37.054Z,966.68
2018-03-03T11:52:43.763Z,966.69
2018-03-03T11:53:50.521Z,966.73
2018-03-03T11:54:57.214Z,966.75
2018-03-03T11:56:03.958Z,966.76
2018-03-03T11:57:10.689Z,966.78
2018-03-03T11:58:17.394Z,966.71
2018-03-03T11:59:24.100Z,966.81
2018-03-03T12:00:30.816Z,966.79
2018-03-03T12:01:37.640Z,966.71
2018-03-03T12:02:44.340Z,966.77
2018-03-03T12:03:51.102Z,966.75
2018-03-03T12:04:57.840Z,966.68
2018-03-03T12:06:04.616Z,966.76
2018-03-03T12:07:11.304Z,966.76
2018-03-03T12:08:18.001Z,966.90
2018-03-03T12:09:24.802Z,966.79
2018-03-03T12:10:31.505Z,966.84
2018-03-03T12:11:38.276Z,966.83
2018-03-03T12:12:44.956Z,966.76
2018-03-03T12:13:51.688Z,966.70
2018-03-03T12:14:58.686Z,966.75
2018-03-03T12:16:05.382Z,966.75
2018-03-03T12:17:12.342Z,966.73
2018-03-03T12:18:19.077Z,966.80
2018-03-03T12:19:25.736Z,966.70
2018-03-03T12:20:32.741Z,966.73
2018-03-03T12:21:39.601Z,966.67
2018-03-03T12:22:46.388Z,966.68
2018-03-03T12:23:53.096Z,966.67
2018-03-03T12:24:59.959Z,966.68
2018-03-03T12:26:06.877Z,966.69
2018-03-03T12:27:13.709Z,966.64
2018-03-03T12:28:20.478Z,966.70
2018-03-03T12:29:27.251Z,966.64
2018-03-03T12:30:33.942Z,966.67
2018-03-03T12:31:40.654Z,966.69
2018-03-03T12:32:47.852Z,966.69
2018-03-03T12:33:54.885Z,966.67
2018-03-03T12:35:01.563Z,966.60
2018-03-03T12:36:08.269Z,966.63
2018-03-03T12:37:15.096Z,966.59
2018-03-03T12:38:22.042Z,966.61
2018-03-03T12:39:29.363Z,966.62
2018-03-03T12:40:36.271Z,966.61
2018-03-03T12:41:43.120Z,966.67
2018-03-03T12:42:49.859Z,966.67
2018-03-03T12:43:56.630Z,966.61
2018-03-03T12:45:03.367Z,966.66
2018-03-03T12:46:10.515Z,966.60
2018-03-03T12:47:17.601Z,966.61
2018-03-03T12:48:24.416Z,966.68
2018-03-03T12:49:31.433Z,966.64
2018-03-03T12:50:38.307Z,966.56
2018-03-03T12:51:45.239Z,966.69
2018-03-03T12:52:52.678Z,966.58
2018-03-03T12:53:59.237Z,966.55
2018-03-03T12:55:05.816Z,966.63
2018-03-03T12:56:12.689Z,966.63
2018-03-03T12:57:19.452Z,966.61
2018-03-03T12:58:26.767Z,966.60
2018-03-03T12:59:33.145Z,966.55
2018-03-03T13:00:40.076Z,966.50
2018-03-03T13:01:48.007Z,966.57
2018-03-03T13:02:54.489Z,966.57
2018-03-03T13:04:01.568Z,966.59
2018-03-03T13:05:08.690Z,966.62
2018-03-03T13:06:15.941Z,966.60
2018-03-03T13:07:23.723Z,966.55
2018-03-03T13:08:31.365Z,966.59
2018-03-03T13:09:36.396Z,966.59
2018-03-03T13:10:43.436Z,966.60
2018-03-03T13:11:50.197Z,966.63
2018-03-03T13:12:56.920Z,966.59
2018-03-03T13:14:03.965Z,966.56
2018-03-03T13:15:10.775Z,966.60
2018-03-03T13:16:17.568Z,966.61
2018-03-03T13:17:24.354Z,966.61
2018-03-03T13:18:31.090Z,966.53
2018-03-03T13:19:37.821Z,966.62
2018-03-03T13:20:44.533Z,966.53
2018-03-03T13:21:51.315Z,966.52
2018-03-03T13:22:58.064Z,966.58
2018-03-03T13:24:04.792Z,966.51
2018-03-03T13:25:11.514Z,966.57
2018-03-03T13:26:18.437Z,966.56
2018-03-03T13:27:26.348Z,966.51
2018-03-03T13:28:32.476Z,966.53
2018-03-03T13:29:39.252Z,966.51
2018-03-03T13:30:45.954Z,966.60
2018-03-03T13:31:52.677Z,966.59
2018-03-03T13:32:59.436Z,966.58
2018-03-03T13:34:06.153Z,966.55
2018-03-03T13:35:12.919Z,966.58
2018-03-03T13:36:19.645Z,966.56
2018-03-03T13:37:26.355Z,966.60
2018-03-03T13:38:33.176Z,966.59
2018-03-03T13:39:39.863Z,966.58
2018-03-03T13:40:46.642Z,966.56
2018-03-03T13:41:53.338Z,966.48
2018-03-03T13:43:00.086Z,966.52
2018-03-03T13:44:06.832Z,966.55
2018-03-03T13:45:13.680Z,966.58
2018-03-03T13:46:20.368Z,966.60
2018-03-03T13:47:27.216Z,966.60
2018-03-03T13:48:34.215Z,966.59
2018-03-03T13:49:40.892Z,966.71
2018-03-03T13:50:47.613Z,966.64
2018-03-03T13:51:54.430Z,966.59
2018-03-03T13:53:01.177Z,966.62